Time;durP1;ratioP1;P1;durP2;ratioP2;P2;SDS_P1;SDS_P2;PMS_P1;PMS_P2;Temp;Humidity;BMP_temperature;BMP_pressure;BME280_temperature;BME280_humidity;BME280_pressure;Samples;Min_cycle;Max_cycle;Signal;HPM_P1;HPM_P2
2022/12/13 00:00:26;;;;;;;;;;;-5.20;99.90;;;;;;5053444;28;20024;-72
2022/12/13 00:02:52;;;;;;;;;;;-5.30;99.90;;;;;;5048385;28;19928;-72
2022/12/13 00:05:17;;;;;;;;;;;-5.30;99.90;;;;;;5036479;28;19978;-71
2022/12/13 00:07:43;;;;;;;;;;;-5.20;99.90;;;;;;5052071;28;20370;-72
2022/12/13 00:10:08;;;;;;;;;;;-5.20;99.90;;;;;;5034459;28;19927;-72
2022/12/13 00:12:34;;;;;;;;;;;-5.20;99.90;;;;;;5047811;28;19963;-72
2022/12/13 00:15:00;;;;;;;;;;;-5.30;99.90;;;;;;5030538;28;19952;-73
2022/12/13 00:17:25;;;;;;;;;;;-5.30;99.90;;;;;;5049446;28;20312;-72
2022/12/13 00:19:51;;;;;;;;;;;-5.40;99.90;;;;;;5031020;28;19944;-72
2022/12/13 00:22:16;;;;;;;;;;;-5.40;99.90;;;;;;5049295;28;19921;-73
2022/12/13 00:24:42;;;;;;;;;;;-5.40;99.90;;;;;;5049813;28;19933;-72
2022/12/13 00:27:07;;;;;;;;;;;-5.50;99.90;;;;;;5032108;28;19929;-72
2022/12/13 00:29:33;;;;;;;;;;;-5.50;99.90;;;;;;5016015;28;19932;-72
2022/12/13 00:31:59;;;;;;;;;;;-5.50;99.90;;;;;;5034395;28;20348;-72
2022/12/13 00:34:24;;;;;;;;;;;-5.50;99.90;;;;;;5041126;28;20018;-72
2022/12/13 00:36:51;;;;;;;;;;;-5.50;99.90;;;;;;5050230;28;19932;-72
2022/12/13 00:39:17;;;;;;;;;;;-5.50;99.90;;;;;;5046998;28;19928;-72
2022/12/13 00:41:44;;;;;;;;;;;-5.60;99.90;;;;;;5048021;28;19924;-72
2022/12/13 00:44:11;;;;;;;;;;;-5.60;99.90;;;;;;5047386;28;19944;-73
2022/12/13 00:46:36;;;;;;;;;;;-5.60;99.90;;;;;;5050002;28;20450;-72
2022/12/13 00:49:03;;;;;;;;;;;-5.50;99.90;;;;;;5021479;28;19999;-71
2022/12/13 00:51:30;;;;;;;;;;;-5.50;99.90;;;;;;5046839;28;19935;-72
2022/12/13 00:53:56;;;;;;;;;;;-5.50;99.90;;;;;;5048344;28;19921;-73
2022/12/13 00:56:24;;;;;;;;;;;-5.40;99.90;;;;;;5051152;28;19999;-72
2022/12/13 00:58:50;;;;;;;;;;;-5.00;99.90;;;;;;5037285;28;19967;-72
2022/12/13 01:01:17;;;;;;;;;;;-5.20;99.90;;;;;;5049829;28;19929;-72
2022/12/13 01:03:43;;;;;;;;;;;-5.30;99.90;;;;;;5055849;28;19920;-72
2022/12/13 01:06:09;;;;;;;;;;;-5.10;99.90;;;;;;5045822;28;19921;-72
2022/12/13 01:08:35;;;;;;;;;;;-5.10;99.90;;;;;;5039075;28;20523;-72
2022/12/13 01:11:01;;;;;;;;;;;-5.10;99.90;;;;;;5048608;28;19929;-71
2022/12/13 01:13:27;;;;;;;;;;;-5.20;99.90;;;;;;5052831;28;19924;-72
2022/12/13 01:15:52;;;;;;;;;;;-5.20;99.90;;;;;;5037793;28;19925;-72
2022/12/13 01:18:18;;;;;;;;;;;-5.10;99.90;;;;;;5035489;28;19927;-72
2022/12/13 01:20:56;;;;;;;;;;;-5.00;99.90;;;;;;5035981;28;20011;-72
2022/12/13 01:23:22;;;;;;;;;;;-4.90;99.90;;;;;;5036144;28;19944;-72
2022/12/13 01:25:47;;;;;;;;;;;-4.80;99.90;;;;;;5053682;28;19929;-72
2022/12/13 01:28:13;;;;;;;;;;;-4.70;99.90;;;;;;5051692;28;19935;-72
2022/12/13 01:30:39;;;;;;;;;;;-4.60;99.90;;;;;;5053061;28;19929;-71
2022/12/13 01:33:04;;;;;;;;;;;-4.70;99.90;;;;;;5040132;28;19927;-72
2022/12/13 01:35:32;;;;;;;;;;;-4.80;99.90;;;;;;5036920;28;20003;-72
2022/12/13 01:37:58;;;;;;;;;;;-4.90;99.90;;;;;;5037433;28;19967;-72
2022/12/13 01:40:23;;;;;;;;;;;-4.90;99.90;;;;;;5039112;28;20378;-72
2022/12/13 01:42:49;;;;;;;;;;;-4.70;99.90;;;;;;5020696;28;20035;-72
2022/12/13 01:45:25;;;;;;;;;;;-5.10;99.90;;;;;;5054638;28;19927;-73
2022/12/13 01:47:53;;;;;;;;;;;-5.10;99.90;;;;;;5049835;28;20690;-72
2022/12/13 01:50:24;;;;;;;;;;;-5.20;99.90;;;;;;5054414;28;19979;-73
2022/12/13 01:52:51;;;;;;;;;;;-5.20;99.90;;;;;;5051089;28;20015;-73
2022/12/13 01:55:17;;;;;;;;;;;-5.20;99.90;;;;;;5054643;28;19933;-73
2022/12/13 01:57:46;;;;;;;;;;;-5.30;99.90;;;;;;5033736;28;19935;-74
2022/12/13 02:00:12;;;;;;;;;;;-5.30;99.90;;;;;;5036819;28;19921;-73
2022/12/13 02:02:38;;;;;;;;;;;-5.30;99.90;;;;;;5048927;28;19967;-73
2022/12/13 02:05:14;;;;;;;;;;;-5.40;99.90;;;;;;5051870;28;20359;-73
2022/12/13 02:07:40;;;;;;;;;;;-5.40;99.90;;;;;;5037975;28;20519;-73
2022/12/13 02:10:07;;;;;;;;;;;-5.40;99.90;;;;;;5055346;28;19932;-73
2022/12/13 02:12:34;;;;;;;;;;;-5.40;99.90;;;;;;5042254;28;19975;-73
2022/12/13 02:15:01;;;;;;;;;;;-5.40;99.90;;;;;;5040111;28;19952;-73
2022/12/13 02:17:34;;;;;;;;;;;-5.40;99.90;;;;;;5051863;28;19927;-73
2022/12/13 02:20:12;;;;;;;;;;;-5.50;99.90;;;;;;5055290;28;19924;-73
2022/12/13 02:22:37;;;;;;;;;;;-5.50;99.90;;;;;;5049115;28;19928;-72
2022/12/13 02:25:03;;;;;;;;;;;-5.60;99.90;;;;;;5049559;28;19921;-73
2022/12/13 02:27:38;;;;;;;;;;;-5.60;99.90;;;;;;5051417;28;19925;-73
2022/12/13 02:30:13;;;;;;;;;;;-5.60;99.90;;;;;;5051149;28;19928;-73
2022/12/13 02:32:51;;;;;;;;;;;-5.80;99.90;;;;;;5049560;28;19921;-73
2022/12/13 02:35:21;;;;;;;;;;;-5.80;99.90;;;;;;5052411;28;20028;-73
2022/12/13 02:37:59;;;;;;;;;;;-5.90;99.90;;;;;;5053440;28;19940;-73
2022/12/13 02:40:32;;;;;;;;;;;-5.90;99.90;;;;;;5045497;28;19920;-73
2022/12/13 02:43:00;;;;;;;;;;;-5.90;99.90;;;;;;5051424;28;20026;-72
2022/12/13 02:45:28;;;;;;;;;;;-6.00;99.90;;;;;;5052337;28;20016;-73
2022/12/13 02:47:55;;;;;;;;;;;-5.60;99.90;;;;;;5032352;28;19924;-73
2022/12/13 02:50:22;;;;;;;;;;;-6.00;99.90;;;;;;5052527;28;19925;-72
2022/12/13 02:52:47;;;;;;;;;;;-6.00;99.90;;;;;;5052648;28;19936;-71
2022/12/13 02:55:14;;;;;;;;;;;-6.00;99.90;;;;;;5047415;28;19933;-72
2022/12/13 02:57:41;;;;;;;;;;;-6.10;99.90;;;;;;5053025;28;19925;-72
2022/12/13 03:00:12;;;;;;;;;;;-6.10;99.90;;;;;;5050786;28;19927;-73
2022/12/13 03:02:56;;;;;;;;;;;-6.10;99.90;;;;;;5052384;28;20111;-73
2022/12/13 03:08:20;;;;;;;;;;;-6.10;99.90;;;;;;5045202;28;19952;-73
2022/12/13 03:10:52;;;;;;;;;;;-6.10;99.90;;;;;;5049624;28;19920;-73
2022/12/13 03:13:37;;;;;;;;;;;-6.10;99.90;;;;;;5054214;28;19925;-73
2022/12/13 03:16:18;;;;;;;;;;;-6.10;99.90;;;;;;5036449;28;19951;-73
2022/12/13 03:18:44;;;;;;;;;;;-6.10;99.90;;;;;;5037728;28;19924;-74
2022/12/13 03:21:10;;;;;;;;;;;-6.20;99.90;;;;;;5051897;28;19920;-73
2022/12/13 03:23:36;;;;;;;;;;;-6.20;99.90;;;;;;5042105;28;19954;-73
2022/12/13 03:26:08;;;;;;;;;;;-6.20;99.90;;;;;;5046027;28;19921;-73
2022/12/13 03:28:34;;;;;;;;;;;-6.20;99.90;;;;;;5050663;28;19975;-73
2022/12/13 03:31:00;;;;;;;;;;;-6.10;99.90;;;;;;5047118;28;19964;-73
2022/12/13 03:33:25;;;;;;;;;;;-6.10;99.90;;;;;;5032906;28;20310;-73
2022/12/13 03:35:51;;;;;;;;;;;-6.20;99.90;;;;;;5032106;28;19925;-73
2022/12/13 03:38:17;;;;;;;;;;;-6.20;99.90;;;;;;5046027;28;19925;-74
2022/12/13 03:40:43;;;;;;;;;;;-6.20;99.90;;;;;;5046226;28;19925;-72
2022/12/13 03:43:09;;;;;;;;;;;-6.20;99.90;;;;;;5034723;28;19951;-73
2022/12/13 03:45:34;;;;;;;;;;;-6.20;99.90;;;;;;5048058;28;19974;-72
2022/12/13 03:48:00;;;;;;;;;;;-6.20;99.90;;;;;;5052934;28;19928;-73
2022/12/13 03:50:25;;;;;;;;;;;-6.30;99.90;;;;;;5047044;28;20289;-73
2022/12/13 03:52:56;;;;;;;;;;;-6.30;99.90;;;;;;5049549;28;20007;-73
2022/12/13 03:55:22;;;;;;;;;;;-6.30;99.90;;;;;;5050678;28;19980;-73
2022/12/13 03:57:47;;;;;;;;;;;-6.30;99.90;;;;;;5047744;28;19966;-73
2022/12/13 04:00:13;;;;;;;;;;;-6.30;99.90;;;;;;5054121;28;19920;-73
2022/12/13 04:02:39;;;;;;;;;;;-6.30;99.90;;;;;;5034341;28;19920;-74
2022/12/13 04:05:04;;;;;;;;;;;-6.40;99.90;;;;;;5025529;28;20394;-73
2022/12/13 04:07:30;;;;;;;;;;;-6.40;99.90;;;;;;5029859;28;20377;-73
2022/12/13 04:09:56;;;;;;;;;;;-6.40;99.90;;;;;;5031170;28;19925;-72
2022/12/13 04:15:06;;;;;;;;;;;-6.50;99.90;;;;;;5054451;28;20015;-73
2022/12/13 04:17:31;;;;;;;;;;;-6.50;99.90;;;;;;5028082;28;20019;-73
2022/12/13 04:19:57;;;;;;;;;;;-6.50;99.90;;;;;;5048560;28;20348;-73
2022/12/13 04:22:23;;;;;;;;;;;-6.50;99.90;;;;;;5031123;28;20470;-73
2022/12/13 04:24:48;;;;;;;;;;;-6.50;99.90;;;;;;5057056;28;19921;-73
2022/12/13 04:27:14;;;;;;;;;;;-6.50;99.90;;;;;;5044095;28;19935;-73
2022/12/13 04:29:40;;;;;;;;;;;-6.50;99.90;;;;;;5053309;28;19932;-73
2022/12/13 04:32:05;;;;;;;;;;;-6.50;99.90;;;;;;5033361;28;19959;-74
2022/12/13 04:34:31;;;;;;;;;;;-6.50;99.90;;;;;;5051709;28;20328;-73
2022/12/13 04:36:56;;;;;;;;;;;-6.50;99.90;;;;;;5053467;28;20348;-73
2022/12/13 04:39:22;;;;;;;;;;;-6.50;99.90;;;;;;5055535;28;20379;-73
2022/12/13 04:41:48;;;;;;;;;;;-6.50;99.90;;;;;;5043298;28;19932;-73
2022/12/13 04:44:14;;;;;;;;;;;-6.40;99.90;;;;;;5054946;28;20597;-73
2022/12/13 04:46:39;;;;;;;;;;;-6.40;99.90;;;;;;5021427;28;20024;-73
2022/12/13 04:49:05;;;;;;;;;;;-5.60;99.90;;;;;;5033902;28;19970;-73
2022/12/13 04:51:30;;;;;;;;;;;-6.30;99.90;;;;;;5054816;28;19921;-73
2022/12/13 04:53:56;;;;;;;;;;;-6.30;99.90;;;;;;5051117;28;20007;-73
2022/12/13 04:56:21;;;;;;;;;;;-6.30;99.90;;;;;;5057234;28;20030;-72
2022/12/13 04:58:47;;;;;;;;;;;-6.30;99.90;;;;;;5034947;28;19931;-73
2022/12/13 05:01:12;;;;;;;;;;;-6.30;99.90;;;;;;5035451;28;19933;-72
2022/12/13 05:03:38;;;;;;;;;;;-6.40;99.90;;;;;;5051905;28;19921;-73
2022/12/13 05:06:07;;;;;;;;;;;-6.40;99.90;;;;;;5047445;28;19975;-74
2022/12/13 05:08:34;;;;;;;;;;;-6.40;99.90;;;;;;5032288;28;20579;-73
2022/12/13 05:11:00;;;;;;;;;;;-6.30;99.90;;;;;;5034442;28;19928;-73
2022/12/13 05:13:26;;;;;;;;;;;-6.30;99.90;;;;;;5038465;28;19921;-73
2022/12/13 05:15:58;;;;;;;;;;;-6.30;99.90;;;;;;5030834;28;19940;-73
2022/12/13 05:18:24;;;;;;;;;;;-6.30;99.90;;;;;;5048296;28;20448;-73
2022/12/13 05:20:50;;;;;;;;;;;-6.10;99.90;;;;;;5057283;28;19921;-73
2022/12/13 05:23:16;;;;;;;;;;;-6.20;99.90;;;;;;5036782;28;20900;-73
2022/12/13 05:25:42;;;;;;;;;;;-6.30;99.90;;;;;;5047631;28;19963;-72
2022/12/13 05:28:07;;;;;;;;;;;-6.30;99.90;;;;;;5047813;28;19964;-73
2022/12/13 05:30:33;;;;;;;;;;;-6.30;99.90;;;;;;5048239;28;19924;-73
2022/12/13 05:32:59;;;;;;;;;;;-6.30;99.90;;;;;;5038855;28;19928;-73
2022/12/13 05:35:24;;;;;;;;;;;-6.30;99.90;;;;;;5050653;28;19964;-72
2022/12/13 05:37:51;;;;;;;;;;;-6.30;99.90;;;;;;5035616;28;19920;-73
2022/12/13 05:40:16;;;;;;;;;;;-6.30;99.90;;;;;;5053363;28;19920;-73
2022/12/13 05:42:42;;;;;;;;;;;-6.30;99.90;;;;;;5035080;28;20385;-73
2022/12/13 05:45:08;;;;;;;;;;;-6.40;99.90;;;;;;5034803;28;19928;-72
2022/12/13 05:47:33;;;;;;;;;;;-6.40;99.90;;;;;;5051911;28;19929;-73
2022/12/13 05:49:59;;;;;;;;;;;-6.50;99.90;;;;;;5026588;28;20396;-73
2022/12/13 05:52:24;;;;;;;;;;;-6.60;99.90;;;;;;5035911;28;19928;-73
2022/12/13 05:54:55;;;;;;;;;;;-6.60;99.90;;;;;;5036799;28;20409;-73
2022/12/13 05:57:20;;;;;;;;;;;-6.60;99.90;;;;;;5046417;28;19958;-73
2022/12/13 05:59:46;;;;;;;;;;;-6.70;99.90;;;;;;5051245;28;20456;-73
2022/12/13 06:02:12;;;;;;;;;;;-6.70;99.90;;;;;;5054229;28;19921;-72
2022/12/13 06:04:38;;;;;;;;;;;-6.70;99.90;;;;;;5048919;28;19975;-73
2022/12/13 06:07:03;;;;;;;;;;;-6.80;99.90;;;;;;5032787;28;19983;-72
2022/12/13 06:09:29;;;;;;;;;;;-6.80;99.90;;;;;;5047033;28;19921;-73
2022/12/13 06:11:55;;;;;;;;;;;-6.80;99.90;;;;;;5050145;28;20642;-73
2022/12/13 06:14:21;;;;;;;;;;;-6.80;99.90;;;;;;5035940;28;19968;-72
2022/12/13 06:16:46;;;;;;;;;;;-6.80;99.90;;;;;;5032783;28;19924;-73
2022/12/13 06:19:12;;;;;;;;;;;-6.80;99.90;;;;;;5050374;28;19928;-73
2022/12/13 06:21:37;;;;;;;;;;;-6.80;99.90;;;;;;5050198;28;20370;-73
2022/12/13 06:24:04;;;;;;;;;;;-6.70;99.90;;;;;;5026816;28;20337;-73
2022/12/13 06:26:30;;;;;;;;;;;-6.70;99.90;;;;;;5045370;28;20492;-73
2022/12/13 06:28:55;;;;;;;;;;;-6.70;99.90;;;;;;5036943;28;20008;-73
2022/12/13 06:31:21;;;;;;;;;;;-6.70;99.90;;;;;;5052136;28;20705;-73
2022/12/13 06:33:46;;;;;;;;;;;-6.80;99.90;;;;;;5042017;28;19973;-73
2022/12/13 06:36:12;;;;;;;;;;;-6.80;99.90;;;;;;5032715;28;19932;-72
2022/12/13 06:38:38;;;;;;;;;;;-6.80;99.90;;;;;;5016093;28;19974;-74
2022/12/13 06:41:07;;;;;;;;;;;-6.80;99.90;;;;;;5028352;28;19925;-72
2022/12/13 06:43:32;;;;;;;;;;;-6.80;99.90;;;;;;5049894;28;20011;-73
2022/12/13 06:45:58;;;;;;;;;;;-6.10;99.90;;;;;;5016544;28;19932;-73
2022/12/13 06:48:23;;;;;;;;;;;-6.80;99.90;;;;;;5041077;28;20397;-73
2022/12/13 06:50:49;;;;;;;;;;;-6.80;99.90;;;;;;5047878;28;20317;-73
2022/12/13 06:53:14;;;;;;;;;;;-6.10;99.90;;;;;;5049188;28;19921;-73
2022/12/13 06:55:40;;;;;;;;;;;-6.80;99.90;;;;;;5048795;28;20282;-73
2022/12/13 06:58:06;;;;;;;;;;;-6.80;99.90;;;;;;5054013;28;20011;-72
2022/12/13 07:00:31;;;;;;;;;;;-6.80;99.90;;;;;;5048917;28;20066;-73
2022/12/13 07:02:57;;;;;;;;;;;-6.90;99.90;;;;;;5017531;28;19929;-73
2022/12/13 07:05:23;;;;;;;;;;;-6.90;99.90;;;;;;5069043;28;20442;-73
2022/12/13 07:07:49;;;;;;;;;;;-6.80;99.90;;;;;;5032529;28;19928;-73
2022/12/13 07:10:15;;;;;;;;;;;-6.90;99.90;;;;;;5050811;28;19920;-74
2022/12/13 07:12:40;;;;;;;;;;;-6.80;99.90;;;;;;5032582;28;20015;-73
2022/12/13 07:15:06;;;;;;;;;;;-6.90;99.90;;;;;;5029380;28;19932;-72
2022/12/13 07:17:32;;;;;;;;;;;-6.80;99.90;;;;;;5047088;28;20413;-71
2022/12/13 07:19:57;;;;;;;;;;;-6.90;99.90;;;;;;5049747;28;19921;-73
2022/12/13 07:22:23;;;;;;;;;;;-6.90;99.90;;;;;;5048818;28;19921;-72
2022/12/13 07:24:48;;;;;;;;;;;-6.90;99.90;;;;;;5038479;28;19921;-72
2022/12/13 07:27:14;;;;;;;;;;;-6.90;99.90;;;;;;5032914;28;19924;-73
2022/12/13 07:29:39;;;;;;;;;;;-6.90;99.90;;;;;;5050050;28;19920;-73
2022/12/13 07:32:05;;;;;;;;;;;-6.90;99.90;;;;;;5050764;28;19995;-73
2022/12/13 07:34:30;;;;;;;;;;;-6.90;99.90;;;;;;5037367;28;19924;-73
2022/12/13 07:36:56;;;;;;;;;;;-6.90;99.90;;;;;;5044174;28;19940;-76
2022/12/13 07:39:24;;;;;;;;;;;-6.90;99.90;;;;;;5031954;28;20373;-73
2022/12/13 07:41:52;;;;;;;;;;;-6.90;99.90;;;;;;5049696;28;19928;-73
2022/12/13 07:44:17;;;;;;;;;;;-6.90;99.90;;;;;;5050719;28;20407;-73
2022/12/13 07:46:43;;;;;;;;;;;-6.90;99.90;;;;;;5024113;28;19929;-73
2022/12/13 07:49:10;;;;;;;;;;;-6.90;99.90;;;;;;5050008;28;20436;-73
2022/12/13 07:51:36;;;;;;;;;;;-6.80;99.90;;;;;;5028898;28;19925;-73
2022/12/13 07:54:02;;;;;;;;;;;-6.80;99.90;;;;;;5035062;28;19974;-72
2022/12/13 07:56:27;;;;;;;;;;;-6.80;99.90;;;;;;5017443;28;19940;-73
2022/12/13 07:58:53;;;;;;;;;;;-6.80;99.90;;;;;;5002987;28;19924;-73
2022/12/13 08:01:18;;;;;;;;;;;-6.80;99.90;;;;;;5019130;28;20421;-74
2022/12/13 08:03:46;;;;;;;;;;;-4.80;99.90;;;;;;5017109;28;19943;-73
2022/12/13 08:06:12;;;;;;;;;;;-6.70;99.90;;;;;;5025506;28;20504;-73
2022/12/13 08:08:38;;;;;;;;;;;-6.70;99.90;;;;;;5012453;28;20455;-73
2022/12/13 08:11:05;;;;;;;;;;;-6.20;99.90;;;;;;5025706;28;19968;-73
2022/12/13 08:13:31;;;;;;;;;;;-6.60;99.90;;;;;;5028012;28;19929;-73
2022/12/13 08:16:01;;;;;;;;;;;-6.60;99.90;;;;;;5044179;28;19947;-73
2022/12/13 08:18:27;;;;;;;;;;;-6.50;99.90;;;;;;5028465;28;19927;-72
2022/12/13 08:20:56;;;;;;;;;;;-6.50;99.90;;;;;;5044793;28;19927;-72
2022/12/13 08:23:21;;;;;;;;;;;-6.50;99.90;;;;;;5044272;28;19920;-73
2022/12/13 08:25:53;;;;;;;;;;;-6.40;99.90;;;;;;5027802;28;19929;-73
2022/12/13 08:28:18;;;;;;;;;;;-6.40;99.90;;;;;;5028463;28;19935;-73
2022/12/13 08:30:44;;;;;;;;;;;-6.30;99.90;;;;;;5035448;28;19928;-74
2022/12/13 08:33:10;;;;;;;;;;;-6.30;99.90;;;;;;5041428;28;19928;-74
2022/12/13 08:35:35;;;;;;;;;;;-6.30;99.90;;;;;;5052748;28;19936;-74
2022/12/13 08:38:01;;;;;;;;;;;-6.00;99.90;;;;;;5039439;28;19952;-74
2022/12/13 08:40:27;;;;;;;;;;;-6.20;99.90;;;;;;5055666;28;19921;-74
2022/12/13 08:42:55;;;;;;;;;;;-6.10;99.90;;;;;;5049520;28;20428;-73
2022/12/13 08:45:23;;;;;;;;;;;-6.10;99.90;;;;;;5066595;28;20420;-73
2022/12/13 08:47:48;;;;;;;;;;;-6.00;99.90;;;;;;5046744;28;20025;-74
2022/12/13 08:50:14;;;;;;;;;;;-6.00;99.90;;;;;;5050525;28;19924;-74
2022/12/13 08:52:41;;;;;;;;;;;-5.90;99.90;;;;;;5057035;28;20028;-74
2022/12/13 08:55:08;;;;;;;;;;;-5.80;99.90;;;;;;5053965;28;19929;-74
2022/12/13 08:57:35;;;;;;;;;;;-5.70;99.90;;;;;;5036288;28;19921;-74
2022/12/13 09:00:00;;;;;;;;;;;-5.60;99.90;;;;;;5063853;28;19970;-74
2022/12/13 09:02:26;;;;;;;;;;;-5.00;99.90;;;;;;5058202;28;20640;-75
2022/12/13 09:04:52;;;;;;;;;;;-4.10;99.90;;;;;;5052164;28;19943;-75
2022/12/13 09:07:17;;;;;;;;;;;-2.80;99.90;;;;;;5064290;28;19921;-75
2022/12/13 09:09:43;;;;;;;;;;;-2.10;99.90;;;;;;5029485;28;19921;-74
2022/12/13 09:12:08;;;;;;;;;;;-1.30;99.90;;;;;;5061686;28;19920;-75
2022/12/13 09:14:34;;;;;;;;;;;-0.60;99.90;;;;;;5069019;28;19928;-75
2022/12/13 09:17:01;;;;;;;;;;;0.30;99.90;;;;;;5037676;28;20365;-75
2022/12/13 09:19:26;;;;;;;;;;;0.20;99.90;;;;;;5055558;28;19974;-75
2022/12/13 09:21:52;;;;;;;;;;;0.50;99.90;;;;;;5059134;28;19932;-75
2022/12/13 09:24:18;;;;;;;;;;;0.70;99.90;;;;;;5056041;28;20378;-75
2022/12/13 09:26:43;;;;;;;;;;;0.70;99.90;;;;;;5044441;28;20058;-75
2022/12/13 09:29:09;;;;;;;;;;;0.90;99.90;;;;;;5061861;28;19921;-75
2022/12/13 09:31:34;;;;;;;;;;;1.40;99.90;;;;;;5074650;28;19924;-75
2022/12/13 09:34:00;;;;;;;;;;;1.10;99.90;;;;;;5058660;28;19942;-75
2022/12/13 09:36:25;;;;;;;;;;;1.00;99.90;;;;;;5042035;28;19960;-74
2022/12/13 09:38:51;;;;;;;;;;;1.10;99.90;;;;;;5039198;28;19920;-75
2022/12/13 09:41:20;;;;;;;;;;;1.10;99.90;;;;;;5035766;28;20297;-74
2022/12/13 09:43:48;;;;;;;;;;;1.10;99.90;;;;;;5041766;28;19929;-74
2022/12/13 09:46:33;;;;;;;;;;;1.80;99.90;;;;;;5059970;28;19921;-74
2022/12/13 09:49:01;;;;;;;;;;;1.10;99.90;;;;;;5036089;28;20000;-74
2022/12/13 09:51:26;;;;;;;;;;;0.40;99.90;;;;;;5054089;28;19925;-74
2022/12/13 09:53:53;;;;;;;;;;;0.00;99.90;;;;;;5052930;28;19921;-74
2022/12/13 09:56:20;;;;;;;;;;;-0.10;99.90;;;;;;5042761;28;19996;-75
2022/12/13 09:58:52;;;;;;;;;;;-0.40;99.90;;;;;;5070485;28;19928;-75
2022/12/13 10:01:19;;;;;;;;;;;-0.80;99.90;;;;;;5051814;28;19928;-74
2022/12/13 10:03:47;;;;;;;;;;;-0.60;99.90;;;;;;5058666;28;19921;-74
2022/12/13 10:06:14;;;;;;;;;;;-0.60;99.90;;;;;;5044650;28;19929;-75
2022/12/13 10:08:42;;;;;;;;;;;-1.00;99.90;;;;;;5054027;28;19974;-74
2022/12/13 10:11:10;;;;;;;;;;;-1.10;99.90;;;;;;5053028;28;20374;-74
2022/12/13 10:13:40;;;;;;;;;;;-1.40;99.90;;;;;;5052910;28;19996;-74
2022/12/13 10:16:10;;;;;;;;;;;-1.70;99.90;;;;;;5056218;28;19963;-74
2022/12/13 10:18:37;;;;;;;;;;;-1.90;99.90;;;;;;5051538;28;20007;-74
2022/12/13 10:21:06;;;;;;;;;;;-1.90;99.90;;;;;;5052844;28;20588;-74
2022/12/13 10:23:32;;;;;;;;;;;-2.10;99.90;;;;;;5037906;28;19921;-74
2022/12/13 10:25:57;;;;;;;;;;;-2.20;99.90;;;;;;5049192;28;19925;-75
2022/12/13 10:28:25;;;;;;;;;;;-2.30;99.90;;;;;;5052660;28;19991;-74
2022/12/13 10:30:51;;;;;;;;;;;-2.40;99.90;;;;;;5054232;28;19924;-74
2022/12/13 10:33:40;;;;;;;;;;;-2.40;99.90;;;;;;5052142;28;19935;-74
2022/12/13 10:36:05;;;;;;;;;;;-2.40;99.90;;;;;;5040448;28;19932;-74
2022/12/13 10:38:34;;;;;;;;;;;-2.40;99.90;;;;;;5046133;28;19920;-74
2022/12/13 10:41:00;;;;;;;;;;;-1.30;99.90;;;;;;5052048;28;20000;-75
2022/12/13 10:43:25;;;;;;;;;;;-2.30;99.90;;;;;;5056424;28;20364;-74
2022/12/13 10:45:54;;;;;;;;;;;-2.30;99.90;;;;;;5050259;28;19934;-75
2022/12/13 10:48:21;;;;;;;;;;;-2.20;99.90;;;;;;5055946;28;19924;-75
2022/12/13 10:51:04;;;;;;;;;;;-2.20;99.90;;;;;;5058177;28;19920;-74
2022/12/13 10:53:34;;;;;;;;;;;-2.10;99.90;;;;;;5058342;28;19928;-75
2022/12/13 10:56:01;;;;;;;;;;;-2.00;99.90;;;;;;5051481;28;19925;-75
2022/12/13 10:58:40;;;;;;;;;;;-1.90;99.90;;;;;;5035386;28;19964;-75
2022/12/13 11:01:13;;;;;;;;;;;-1.90;99.90;;;;;;5051110;28;19921;-75
2022/12/13 11:03:38;;;;;;;;;;;-1.90;99.90;;;;;;5050789;28;19931;-74
2022/12/13 11:06:10;;;;;;;;;;;-1.80;99.90;;;;;;5027293;28;19921;-74
2022/12/13 11:08:36;;;;;;;;;;;-1.70;99.90;;;;;;5047170;28;19929;-74
2022/12/13 11:11:02;;;;;;;;;;;-1.70;99.90;;;;;;5033789;28;20013;-75
2022/12/13 11:13:35;;;;;;;;;;;-1.30;99.90;;;;;;5049274;28;19925;-74
2022/12/13 11:16:01;;;;;;;;;;;-1.60;99.90;;;;;;5050497;28;20458;-75
2022/12/13 11:18:30;;;;;;;;;;;-1.60;99.90;;;;;;5057179;28;19944;-74
2022/12/13 11:20:58;;;;;;;;;;;-1.60;99.90;;;;;;5051181;28;20442;-74
2022/12/13 11:23:49;;;;;;;;;;;-1.00;99.90;;;;;;5050956;28;19966;-76
2022/12/13 11:26:19;;;;;;;;;;;-1.50;99.90;;;;;;5047340;28;19928;-76
2022/12/13 11:28:54;;;;;;;;;;;-1.40;99.90;;;;;;5033121;28;20454;-77
2022/12/13 11:31:19;;;;;;;;;;;-1.40;99.90;;;;;;5051746;28;19925;-76
2022/12/13 11:34:04;;;;;;;;;;;-1.40;99.90;;;;;;5065963;28;19977;-75
2022/12/13 11:36:50;;;;;;;;;;;-1.40;99.90;;;;;;5039925;28;19996;-76
2022/12/13 11:39:28;;;;;;;;;;;-1.40;99.90;;;;;;5053354;28;19920;-76
2022/12/13 11:42:03;;;;;;;;;;;-1.40;99.90;;;;;;5060422;28;19928;-74
2022/12/13 11:45:05;;;;;;;;;;;-1.30;99.90;;;;;;5040550;28;19966;-75
2022/12/13 11:47:53;;;;;;;;;;;-1.30;99.90;;;;;;4972902;28;19929;-75
2022/12/13 11:50:27;;;;;;;;;;;-1.40;99.90;;;;;;5029138;28;19925;-74
2022/12/13 11:52:53;;;;;;;;;;;-1.40;99.90;;;;;;5048394;28;19921;-74
2022/12/13 11:55:36;;;;;;;;;;;-1.40;99.90;;;;;;5050808;28;20378;-75
2022/12/13 11:58:12;;;;;;;;;;;-1.40;99.90;;;;;;5059845;28;19928;-75
2022/12/13 12:00:46;;;;;;;;;;;-1.50;99.90;;;;;;5035779;28;19973;-75
2022/12/13 12:03:20;;;;;;;;;;;-1.50;99.90;;;;;;5054680;28;20392;-75
2022/12/13 12:05:48;;;;;;;;;;;-1.50;99.90;;;;;;5037408;28;20001;-75
2022/12/13 12:08:26;;;;;;;;;;;-1.50;99.90;;;;;;5053421;28;19985;-75
2022/12/13 12:11:11;;;;;;;;;;;-1.50;99.90;;;;;;5049145;28;19964;-75
2022/12/13 12:13:46;;;;;;;;;;;-1.50;99.90;;;;;;5052175;28;19924;-74
2022/12/13 12:16:16;;;;;;;;;;;-1.40;99.90;;;;;;5045164;28;20384;-76
2022/12/13 12:18:42;;;;;;;;;;;-1.40;99.90;;;;;;5035800;28;20345;-75
2022/12/13 12:21:08;;;;;;;;;;;-1.30;99.90;;;;;;5033857;28;19921;-75
2022/12/13 12:23:33;;;;;;;;;;;-1.30;99.90;;;;;;5049901;28;19920;-75
2022/12/13 12:26:07;;;;;;;;;;;-1.20;99.90;;;;;;5032564;28;20352;-75
2022/12/13 12:28:46;;;;;;;;;;;-1.10;99.90;;;;;;5051068;28;20362;-75
2022/12/13 12:31:30;;;;;;;;;;;-1.00;99.90;;;;;;5053162;28;19925;-75
2022/12/13 12:34:19;;;;;;;;;;;-0.80;99.90;;;;;;5047959;28;19943;-75
2022/12/13 12:36:56;;;;;;;;;;;-0.60;99.90;;;;;;5049255;28;20164;-74
2022/12/13 12:39:21;;;;;;;;;;;-0.40;99.90;;;;;;5037145;28;20015;-75
2022/12/13 12:42:13;;;;;;;;;;;-0.10;99.90;;;;;;5033639;28;20061;-74
2022/12/13 12:44:48;;;;;;;;;;;-0.20;99.90;;;;;;5038054;28;19988;-74
2022/12/13 12:47:13;;;;;;;;;;;-0.10;99.90;;;;;;5057951;28;19928;-74
2022/12/13 12:49:58;;;;;;;;;;;-0.10;99.90;;;;;;5040399;28;19920;-74
2022/12/13 12:52:23;;;;;;;;;;;-0.10;99.90;;;;;;5047890;28;20370;-74
2022/12/13 12:55:01;;;;;;;;;;;-0.10;99.90;;;;;;5036370;28;19921;-75
2022/12/13 12:57:30;;;;;;;;;;;-0.10;99.90;;;;;;5036259;28;20503;-74
2022/12/13 12:59:55;;;;;;;;;;;-0.20;99.90;;;;;;5035235;28;19928;-74
2022/12/13 13:02:24;;;;;;;;;;;-0.10;99.90;;;;;;5054587;28;19921;-74
2022/12/13 13:04:52;;;;;;;;;;;0.00;99.90;;;;;;5051428;28;19934;-75
2022/12/13 13:07:23;;;;;;;;;;;0.10;99.90;;;;;;5064101;28;19931;-74
2022/12/13 13:09:50;;;;;;;;;;;0.20;99.90;;;;;;5053271;28;20455;-75
2022/12/13 13:12:15;;;;;;;;;;;0.30;99.90;;;;;;5052759;28;19921;-74
2022/12/13 13:14:41;;;;;;;;;;;0.20;99.90;;;;;;5035271;28;20396;-75
2022/12/13 13:17:16;;;;;;;;;;;0.30;99.90;;;;;;5040196;28;19972;-74
2022/12/13 13:19:44;;;;;;;;;;;0.20;99.90;;;;;;5038216;28;19921;-75
2022/12/13 13:22:42;;;;;;;;;;;0.40;99.90;;;;;;5060620;28;19920;-75
2022/12/13 13:25:29;;;;;;;;;;;0.20;99.90;;;;;;5034621;28;19921;-74
2022/12/13 13:28:00;;;;;;;;;;;0.60;99.90;;;;;;5040675;28;19928;-75
2022/12/13 13:30:26;;;;;;;;;;;0.10;99.90;;;;;;5051798;28;19939;-75
2022/12/13 13:32:53;;;;;;;;;;;1.00;99.90;;;;;;5062904;28;19920;-74
2022/12/13 13:35:31;;;;;;;;;;;0.30;99.90;;;;;;5051688;28;19925;-75
2022/12/13 13:38:16;;;;;;;;;;;-0.30;99.90;;;;;;5052226;28;20301;-75
2022/12/13 13:40:42;;;;;;;;;;;-0.40;99.90;;;;;;5053262;28;20029;-74
2022/12/13 13:43:08;;;;;;;;;;;-0.50;99.90;;;;;;5048251;28;19928;-74
2022/12/13 13:45:49;;;;;;;;;;;-0.60;99.90;;;;;;5051115;28;20347;-75
2022/12/13 13:48:35;;;;;;;;;;;-0.70;99.90;;;;;;5036455;28;19967;-74
2022/12/13 13:51:20;;;;;;;;;;;-0.80;99.90;;;;;;5050783;28;20046;-74
2022/12/13 13:54:04;;;;;;;;;;;-0.80;99.90;;;;;;5051683;28;19924;-75
2022/12/13 13:56:34;;;;;;;;;;;-0.90;99.90;;;;;;5051555;28;20397;-75
2022/12/13 13:59:00;;;;;;;;;;;-0.90;99.90;;;;;;5050398;28;19920;-74
2022/12/13 14:01:35;;;;;;;;;;;-0.40;99.90;;;;;;5049263;28;19921;-74
2022/12/13 14:04:19;;;;;;;;;;;-1.00;99.90;;;;;;5034156;28;19921;-75
2022/12/13 14:06:48;;;;;;;;;;;-1.10;99.90;;;;;;5055514;28;19971;-74
2022/12/13 14:09:32;;;;;;;;;;;-1.10;99.90;;;;;;5050446;28;19972;-75
2022/12/13 14:12:16;;;;;;;;;;;-1.10;99.90;;;;;;5038505;28;19932;-74
2022/12/13 14:15:00;;;;;;;;;;;-1.20;99.90;;;;;;5052825;28;19921;-75
2022/12/13 14:17:47;;;;;;;;;;;-1.20;99.90;;;;;;5050146;28;19939;-75
2022/12/13 14:20:32;;;;;;;;;;;-1.30;99.90;;;;;;5053370;28;19920;-75
2022/12/13 14:22:57;;;;;;;;;;;-1.50;99.90;;;;;;5035334;28;19956;-75
2022/12/13 14:25:41;;;;;;;;;;;-1.40;99.90;;;;;;5040995;28;19967;-75
2022/12/13 14:28:07;;;;;;;;;;;-1.40;99.90;;;;;;5036465;28;19986;-74
2022/12/13 14:30:32;;;;;;;;;;;-1.50;99.90;;;;;;5050950;28;19933;-74
2022/12/13 14:32:58;;;;;;;;;;;-1.50;99.90;;;;;;5051272;28;19925;-74